createdAt,value
2018-11-03T00:01:26.644Z,75.13
2018-11-03T00:03:55.116Z,75.47
2018-11-03T00:06:23.398Z,80.00
2018-11-03T00:08:51.652Z,86.17
2018-11-03T00:11:19.927Z,94.20
2018-11-03T00:13:48.471Z,80.60
2018-11-03T00:16:16.698Z,73.60
2018-11-03T00:18:45.162Z,75.23
2018-11-03T00:21:13.495Z,80.43
2018-11-03T00:23:41.783Z,91.80
2018-11-03T00:26:10.022Z,81.53
2018-11-03T00:28:38.368Z,76.37
2018-11-03T00:31:06.768Z,76.30
2018-11-03T00:33:35.011Z,72.23
2018-11-03T00:36:03.415Z,83.87
2018-11-03T00:38:31.616Z,78.57
2018-11-03T00:41:00.055Z,77.63
2018-11-03T00:43:28.311Z,81.63
2018-11-03T00:45:56.836Z,71.80
2018-11-03T00:48:25.034Z,68.57
2018-11-03T00:50:53.196Z,64.73
2018-11-03T00:53:21.667Z,65.73
2018-11-03T00:55:49.807Z,59.70
2018-11-03T00:58:18.365Z,62.70
2018-11-03T01:00:46.772Z,56.30
2018-11-03T01:03:14.923Z,63.03
2018-11-03T01:05:43.479Z,63.57
2018-11-03T01:08:11.719Z,67.80
2018-11-03T01:10:39.991Z,67.73
2018-11-03T01:13:08.452Z,71.90
2018-11-03T01:15:36.974Z,69.10
2018-11-03T01:18:05.219Z,58.80
2018-11-03T01:20:33.594Z,56.00
2018-11-03T01:23:01.779Z,58.73
2018-11-03T01:25:30.219Z,64.23
2018-11-03T01:27:58.551Z,62.03
2018-11-03T01:30:27.017Z,58.20
2018-11-03T01:32:55.286Z,59.10
2018-11-03T01:35:23.575Z,56.40
2018-11-03T01:37:51.847Z,58.43
2018-11-03T01:40:20.083Z,52.83
2018-11-03T01:42:48.655Z,46.13
2018-11-03T01:45:16.763Z,51.87
2018-11-03T01:47:45.130Z,40.87
2018-11-03T01:50:14.239Z,35.38
2018-11-03T01:52:42.709Z,37.60
2018-11-03T01:55:10.874Z,36.07
2018-11-03T01:57:39.099Z,36.67
2018-11-03T02:00:07.902Z,37.87
2018-11-03T02:02:36.233Z,36.87
2018-11-03T02:05:04.827Z,36.60
2018-11-03T02:07:32.976Z,36.63
2018-11-03T02:10:01.263Z,30.80
2018-11-03T02:12:29.575Z,32.80
2018-11-03T02:14:57.794Z,30.03
2018-11-03T02:17:26.320Z,27.60
2018-11-03T02:19:54.647Z,28.50
2018-11-03T02:22:23.016Z,22.40
2018-11-03T02:24:51.100Z,25.33
2018-11-03T02:27:19.624Z,21.63
2018-11-03T02:29:47.851Z,23.97
2018-11-03T02:32:16.209Z,25.07
2018-11-03T02:34:44.410Z,24.83
2018-11-03T02:37:12.876Z,20.73
2018-11-03T02:39:40.981Z,24.87
2018-11-03T02:42:09.276Z,26.10
2018-11-03T02:44:37.533Z,25.77
2018-11-03T02:47:05.972Z,22.73
2018-11-03T02:49:34.210Z,24.33
2018-11-03T02:52:02.319Z,24.63
2018-11-03T02:54:30.463Z,25.23
2018-11-03T02:56:58.787Z,24.13
2018-11-03T02:59:27.232Z,27.83
2018-11-03T03:01:55.452Z,25.07
2018-11-03T03:04:23.970Z,28.17
2018-11-03T03:06:52.092Z,22.83
2018-11-03T03:09:20.256Z,24.63
2018-11-03T03:11:48.566Z,25.60
2018-11-03T03:14:17.015Z,25.67
2018-11-03T03:16:45.323Z,29.33
2018-11-03T03:19:13.660Z,25.07
2018-11-03T03:21:42.055Z,23.50
2018-11-03T03:24:10.153Z,21.63
2018-11-03T03:26:38.417Z,26.00
2018-11-03T03:29:06.886Z,29.10
2018-11-03T03:31:35.228Z,25.00
2018-11-03T03:34:03.495Z,25.07
2018-11-03T03:36:31.983Z,25.57
2018-11-03T03:39:00.213Z,26.53
2018-11-03T03:41:28.520Z,29.30
2018-11-03T03:43:56.804Z,30.37
2018-11-03T03:46:25.239Z,29.70
2018-11-03T03:48:53.558Z,30.73
2018-11-03T03:51:21.969Z,30.13
2018-11-03T03:53:50.272Z,35.33
2018-11-03T03:56:18.819Z,33.50
2018-11-03T03:58:47.051Z,30.97
2018-11-03T04:01:15.537Z,39.77
2018-11-03T04:03:43.862Z,33.97
2018-11-03T04:06:12.096Z,32.80
2018-11-03T04:08:40.579Z,31.53
2018-11-03T04:11:08.850Z,34.17
2018-11-03T04:13:37.306Z,33.93
2018-11-03T04:16:05.436Z,34.23
2018-11-03T04:18:33.907Z,40.40
2018-11-03T04:21:02.108Z,33.57
2018-11-03T04:23:30.394Z,37.17
2018-11-03T04:25:58.499Z,33.53
2018-11-03T04:28:26.961Z,35.30
2018-11-03T04:30:55.284Z,37.83
2018-11-03T04:33:23.244Z,37.17
2018-11-03T04:35:51.015Z,38.10
2018-11-03T04:38:18.827Z,39.10
2018-11-03T04:40:46.529Z,37.30
2018-11-03T04:43:14.214Z,36.03
2018-11-03T04:45:41.971Z,38.70
2018-11-03T04:48:10.148Z,44.97
2018-11-03T04:50:38.364Z,38.63
2018-11-03T04:53:06.627Z,47.90
2018-11-03T04:55:34.959Z,43.37
2018-11-03T04:58:03.187Z,48.50
2018-11-03T05:00:31.723Z,42.40
2018-11-03T05:03:00.027Z,45.53
2018-11-03T05:05:28.410Z,43.93
2018-11-03T05:07:56.695Z,46.27
2018-11-03T05:10:24.506Z,48.37
2018-11-03T05:12:52.822Z,42.87
2018-11-03T05:15:20.922Z,46.83
2018-11-03T05:17:49.105Z,44.10
2018-11-03T05:20:17.541Z,47.67
2018-11-03T05:22:45.775Z,40.97
2018-11-03T05:25:14.230Z,47.87
2018-11-03T05:27:42.524Z,44.97
2018-11-03T05:30:10.991Z,45.87
2018-11-03T05:32:39.210Z,44.93
2018-11-03T05:35:07.367Z,47.47
2018-11-03T05:37:35.658Z,47.90
2018-11-03T05:40:04.149Z,47.10
2018-11-03T05:42:32.344Z,50.23
2018-11-03T05:45:00.429Z,47.20
2018-11-03T05:47:28.735Z,50.57
2018-11-03T05:49:56.998Z,48.53
2018-11-03T05:52:25.267Z,49.13
2018-11-03T05:54:53.591Z,57.50
2018-11-03T05:57:22.024Z,50.70
2018-11-03T05:59:50.266Z,60.70
2018-11-03T06:02:19.388Z,63.50
2018-11-03T06:04:47.172Z,71.20
2018-11-03T06:07:14.915Z,74.07
2018-11-03T06:09:43.211Z,65.43
2018-11-03T06:12:10.959Z,64.30
2018-11-03T06:14:38.785Z,66.80
2018-11-03T06:17:06.604Z,65.93
2018-11-03T06:19:34.352Z,74.47
2018-11-03T06:22:02.031Z,61.83
2018-11-03T06:24:29.792Z,63.90
2018-11-03T06:26:57.539Z,64.97
2018-11-03T06:29:25.254Z,70.57
2018-11-03T06:31:52.960Z,69.77
2018-11-03T06:34:20.702Z,81.77
2018-11-03T06:36:48.496Z,84.53
2018-11-03T06:39:16.245Z,84.43
2018-11-03T06:41:43.962Z,81.63
2018-11-03T06:44:11.715Z,94.37
2018-11-03T06:46:39.626Z,96.20
2018-11-03T06:49:12.872Z,96.27
2018-11-03T06:51:40.630Z,90.23
2018-11-03T06:54:08.363Z,91.07
2018-11-03T06:56:36.144Z,98.60
2018-11-03T06:59:04.008Z,90.70
2018-11-03T07:01:31.818Z,102.53
2018-11-03T07:04:00.163Z,97.10
2018-11-03T07:06:28.449Z,98.43
2018-11-03T07:08:56.905Z,97.80
2018-11-03T07:11:25.484Z,93.80
2018-11-03T07:13:53.766Z,100.03
2018-11-03T07:16:22.136Z,106.30
2018-11-03T07:18:50.634Z,92.80
2018-11-03T07:21:18.914Z,103.67
2018-11-03T07:23:47.172Z,95.77
2018-11-03T07:26:15.503Z,94.17
2018-11-03T07:28:43.980Z,90.87
2018-11-03T07:31:12.217Z,96.60
2018-11-03T07:33:40.783Z,95.23
2018-11-03T07:36:08.864Z,81.23
2018-11-03T07:38:37.241Z,92.03
2018-11-03T07:41:05.909Z,83.00
2018-11-03T07:43:34.063Z,79.37
2018-11-03T07:46:02.478Z,88.33
2018-11-03T07:48:30.805Z,77.40
2018-11-03T07:50:59.304Z,83.07
2018-11-03T07:53:27.539Z,80.17
2018-11-03T07:55:55.782Z,85.30
2018-11-03T07:58:24.047Z,77.83
2018-11-03T08:00:52.575Z,80.97
2018-11-03T08:03:20.786Z,71.33
2018-11-03T08:05:49.159Z,67.63
2018-11-03T08:08:17.349Z,79.57
2018-11-03T08:10:45.852Z,89.73
2018-11-03T08:13:14.216Z,82.13
2018-11-03T08:15:42.375Z,82.70
2018-11-03T08:18:10.675Z,79.27
2018-11-03T08:20:38.791Z,81.60
2018-11-03T08:23:07.195Z,84.03
2018-11-03T08:25:35.290Z,87.07
2018-11-03T08:28:03.573Z,93.17
2018-11-03T08:30:32.083Z,93.97
2018-11-03T08:33:00.325Z,91.13
2018-11-03T08:35:28.838Z,87.97
2018-11-03T08:37:57.064Z,80.10
2018-11-03T08:40:25.538Z,101.83
2018-11-03T08:42:53.322Z,87.47
2018-11-03T08:45:21.142Z,83.97
2018-11-03T08:47:48.827Z,94.50
2018-11-03T08:50:16.619Z,86.20
2018-11-03T08:52:45.115Z,84.00
2018-11-03T08:55:13.786Z,85.43
2018-11-03T08:57:42.327Z,85.77
2018-11-03T09:00:12.747Z,77.73
2018-11-03T09:02:41.227Z,72.83
2018-11-03T09:05:10.385Z,76.93
2018-11-03T09:07:38.486Z,65.03
2018-11-03T09:10:08.358Z,64.63
2018-11-03T09:12:36.686Z,67.47
2018-11-03T09:15:05.907Z,66.83
2018-11-03T09:17:33.975Z,61.33
2018-11-03T09:20:02.516Z,60.20
2018-11-03T09:22:30.785Z,57.43
2018-11-03T09:24:59.111Z,54.73
2018-11-03T09:27:27.783Z,54.17
2018-11-03T09:29:55.975Z,58.10
2018-11-03T09:32:24.257Z,54.67
2018-11-03T09:34:52.851Z,56.67
2018-11-03T09:37:21.072Z,54.30
2018-11-03T09:39:49.411Z,61.47
2018-11-03T09:42:17.674Z,49.43
2018-11-03T09:44:46.101Z,49.60
2018-11-03T09:47:14.384Z,50.77
2018-11-03T09:49:43.107Z,44.87
2018-11-03T09:52:11.345Z,51.10
2018-11-03T09:54:39.800Z,47.83
2018-11-03T09:57:07.880Z,49.93
2018-11-03T09:59:36.168Z,44.77
2018-11-03T10:02:04.392Z,44.03
2018-11-03T10:04:32.506Z,47.40
2018-11-03T10:07:00.772Z,44.27
2018-11-03T10:09:29.067Z,44.67
2018-11-03T10:11:57.552Z,47.47
2018-11-03T10:14:25.375Z,49.87
2018-11-03T10:16:53.176Z,48.73
2018-11-03T10:19:20.972Z,46.03
2018-11-03T10:21:48.706Z,47.33
2018-11-03T10:24:16.421Z,49.03
2018-11-03T10:26:44.203Z,40.70
2018-11-03T10:29:11.954Z,36.53
2018-11-03T10:31:39.674Z,40.27
2018-11-03T10:34:07.568Z,39.57
2018-11-03T10:36:35.311Z,40.73
2018-11-03T10:39:04.131Z,39.40
2018-11-03T10:41:31.951Z,37.83
2018-11-03T10:43:59.687Z,40.03
2018-11-03T10:46:27.604Z,36.27
2018-11-03T10:48:55.354Z,40.50
2018-11-03T10:51:24.067Z,40.77
2018-11-03T10:53:52.252Z,37.33
2018-11-03T10:56:20.843Z,40.43
2018-11-03T10:58:49.059Z,40.63
2018-11-03T11:01:22.367Z,40.50
2018-11-03T11:05:57.435Z,43.10
2018-11-03T11:08:31.743Z,41.33
2018-11-03T11:11:04.902Z,41.70
2018-11-03T11:13:34.427Z,44.47
2018-11-03T11:16:02.226Z,39.43
2018-11-03T11:18:29.956Z,37.77
2018-11-03T11:20:57.691Z,37.97
2018-11-03T11:23:25.521Z,36.50
2018-11-03T11:25:53.203Z,35.87
2018-11-03T11:28:21.060Z,32.90
2018-11-03T11:30:48.764Z,36.03
2018-11-03T11:33:17.304Z,33.07
2018-11-03T11:35:45.103Z,31.30
2018-11-03T11:38:13.516Z,31.13
2018-11-03T11:40:41.598Z,29.70
2018-11-03T11:43:10.431Z,30.77
2018-11-03T11:45:38.463Z,27.17
2018-11-03T11:48:06.261Z,26.83
2018-11-03T11:50:34.122Z,27.80
2018-11-03T11:53:01.836Z,25.30
2018-11-03T11:55:29.587Z,23.70
2018-11-03T11:57:57.408Z,22.43
2018-11-03T12:00:25.294Z,22.77
2018-11-03T12:02:59.775Z,26.03
2018-11-03T12:05:27.658Z,24.70
2018-11-03T12:07:55.507Z,26.70
2018-11-03T12:10:23.306Z,29.90
2018-11-03T12:12:51.095Z,25.80
2018-11-03T12:15:18.878Z,24.17
2018-11-03T12:17:46.705Z,22.33
2018-11-03T12:20:14.519Z,25.47
2018-11-03T12:22:42.205Z,23.53
2018-11-03T12:25:10.931Z,24.93
2018-11-03T12:27:38.982Z,31.53
2018-11-03T12:30:09.027Z,29.07
2018-11-03T12:32:36.948Z,30.20
2018-11-03T12:35:05.143Z,32.20
2018-11-03T12:37:32.972Z,27.90
2018-11-03T12:40:00.764Z,28.90
2018-11-03T12:42:28.510Z,27.30
2018-11-03T12:44:56.251Z,24.63
2018-11-03T12:47:24.106Z,23.80
2018-11-03T12:49:59.034Z,24.00
2018-11-03T12:52:27.692Z,19.50
2018-11-03T12:54:55.507Z,22.13
2018-11-03T12:57:23.332Z,22.17
2018-11-03T12:59:51.181Z,24.13
2018-11-03T13:02:18.906Z,22.13
2018-11-03T13:04:46.757Z,23.57
2018-11-03T13:07:14.566Z,24.50
2018-11-03T13:09:42.473Z,22.37
2018-11-03T13:12:10.157Z,28.97
2018-11-03T13:14:37.960Z,24.60
2018-11-03T13:17:06.079Z,24.77
2018-11-03T13:19:33.911Z,25.33
2018-11-03T13:22:01.733Z,26.20
2018-11-03T13:24:29.452Z,25.13
2018-11-03T13:26:57.203Z,23.97
2018-11-03T13:29:24.988Z,25.33
2018-11-03T13:31:52.779Z,26.73
2018-11-03T13:34:20.555Z,26.97
2018-11-03T13:36:49.272Z,23.80
2018-11-03T13:39:17.021Z,28.57
2018-11-03T13:41:44.779Z,28.17
2018-11-03T13:44:12.556Z,31.23
2018-11-03T13:46:40.347Z,24.57
2018-11-03T13:49:08.097Z,27.33
2018-11-03T13:51:35.899Z,27.67
2018-11-03T13:54:03.671Z,28.00
2018-11-03T13:56:31.451Z,28.03
2018-11-03T13:58:59.315Z,23.10
2018-11-03T14:01:27.098Z,29.10
2018-11-03T14:03:54.844Z,31.23
2018-11-03T14:06:22.660Z,28.77
2018-11-03T14:08:50.388Z,33.23
2018-11-03T14:11:18.223Z,29.67
2018-11-03T14:13:45.923Z,26.63
2018-11-03T14:16:13.727Z,27.87
2018-11-03T14:18:41.832Z,31.43
2018-11-03T14:21:10.071Z,32.40
2018-11-03T14:23:37.899Z,28.23
2018-11-03T14:26:05.924Z,26.87
2018-11-03T14:28:33.700Z,26.57
2018-11-03T14:31:01.415Z,28.40
2018-11-03T14:33:29.313Z,31.10
2018-11-03T14:35:57.107Z,27.97
2018-11-03T14:38:24.867Z,28.17
2018-11-03T14:40:52.655Z,27.80
2018-11-03T14:43:20.458Z,29.97
2018-11-03T14:45:48.238Z,33.83
2018-11-03T14:48:16.000Z,27.53
2018-11-03T14:50:43.858Z,26.50
2018-11-03T14:53:11.564Z,27.50
2018-11-03T14:55:39.283Z,30.27
2018-11-03T14:58:07.034Z,32.10
2018-11-03T15:00:35.808Z,32.47
2018-11-03T15:03:04.155Z,31.30
2018-11-03T15:05:31.991Z,33.17
2018-11-03T15:07:59.750Z,30.57
2018-11-03T15:10:27.531Z,41.90
2018-11-03T15:12:55.306Z,34.07
2018-11-03T15:15:23.027Z,37.23
2018-11-03T15:17:50.759Z,37.67
2018-11-03T15:20:18.628Z,36.50
2018-11-03T15:22:46.524Z,39.10
2018-11-03T15:25:14.319Z,37.93
2018-11-03T15:27:42.523Z,37.77
2018-11-03T15:30:11.503Z,41.20
2018-11-03T15:32:39.634Z,41.57
2018-11-03T15:35:08.272Z,38.73
2018-11-03T15:37:35.983Z,40.43
2018-11-03T15:40:04.187Z,54.57
2018-11-03T15:42:32.024Z,101.03
2018-11-03T15:44:59.812Z,57.57
2018-11-03T15:47:27.604Z,42.73
2018-11-03T15:49:55.430Z,41.23
2018-11-03T15:52:23.375Z,42.50
2018-11-03T15:54:51.115Z,40.87
2018-11-03T15:57:18.964Z,43.80
2018-11-03T15:59:46.859Z,44.93
2018-11-03T16:02:14.599Z,42.30
2018-11-03T16:04:42.557Z,38.90
2018-11-03T16:07:10.287Z,40.87
2018-11-03T16:09:38.036Z,42.90
2018-11-03T16:12:06.268Z,42.50
2018-11-03T16:14:34.051Z,41.23
2018-11-03T16:17:01.879Z,48.47
2018-11-03T16:19:29.713Z,48.80
2018-11-03T16:21:57.455Z,51.77
2018-11-03T16:24:25.231Z,46.87
2018-11-03T16:26:53.043Z,43.30
2018-11-03T16:29:20.824Z,51.63
2018-11-03T16:31:48.563Z,43.77
2018-11-03T16:34:16.311Z,48.13
2018-11-03T16:36:44.054Z,49.90
2018-11-03T16:39:11.791Z,49.00
2018-11-03T16:41:39.671Z,46.03
2018-11-03T16:44:07.463Z,42.47
2018-11-03T16:46:35.215Z,44.10
2018-11-03T16:49:02.951Z,48.03
2018-11-03T16:51:30.724Z,41.60
2018-11-03T16:53:58.517Z,44.97
2018-11-03T16:56:26.315Z,43.10
2018-11-03T16:58:54.067Z,49.23
2018-11-03T17:01:21.987Z,47.60
2018-11-03T17:03:49.743Z,51.20
2018-11-03T17:06:17.522Z,48.03
2018-11-03T17:08:45.331Z,50.00
2018-11-03T17:11:13.245Z,50.80
2018-11-03T17:13:41.255Z,51.80
2018-11-03T17:16:08.950Z,53.00
2018-11-03T17:18:36.821Z,49.17
2018-11-03T17:21:04.657Z,49.20
2018-11-03T17:23:32.423Z,50.30
2018-11-03T17:26:00.862Z,52.93
2018-11-03T17:28:29.089Z,51.00
2018-11-03T17:30:57.575Z,49.43
2018-11-03T17:33:26.304Z,51.73
2018-11-03T17:35:54.849Z,54.67
2018-11-03T17:38:23.303Z,52.03
2018-11-03T17:40:51.551Z,48.00
2018-11-03T17:43:20.047Z,55.00
2018-11-03T17:45:49.580Z,52.17
2018-11-03T17:48:18.716Z,58.50
2018-11-03T17:50:48.185Z,58.53
2018-11-03T17:53:16.880Z,58.33
2018-11-03T17:55:44.680Z,64.50
2018-11-03T17:58:12.891Z,60.57
2018-11-03T18:00:41.491Z,60.87
2018-11-03T18:03:09.559Z,60.97
2018-11-03T18:05:37.971Z,58.60
2018-11-03T18:08:06.409Z,57.27
2018-11-03T18:10:34.771Z,65.67
2018-11-03T18:13:02.991Z,60.03
2018-11-03T18:15:31.480Z,54.43
2018-11-03T18:17:59.972Z,53.67
2018-11-03T18:20:28.236Z,55.70
2018-11-03T18:22:56.720Z,56.10
2018-11-03T18:25:24.986Z,75.50
2018-11-03T18:27:53.719Z,58.30
2018-11-03T18:30:22.143Z,54.73
2018-11-03T18:32:51.680Z,72.30
2018-11-03T18:35:21.006Z,69.87
2018-11-03T18:37:49.629Z,71.10
2018-11-03T18:40:18.171Z,72.10
2018-11-03T18:42:46.355Z,68.60
2018-11-03T18:45:15.078Z,58.73
2018-11-03T18:47:43.876Z,64.90
2018-11-03T18:50:14.157Z,61.50
2018-11-03T18:52:42.933Z,68.73
2018-11-03T18:55:12.068Z,57.00
2018-11-03T18:57:41.639Z,61.27
2018-11-03T19:00:11.162Z,55.33
2018-11-03T19:02:40.159Z,60.57
2018-11-03T19:05:08.671Z,67.33
2018-11-03T19:07:37.185Z,68.97
2018-11-03T19:10:06.143Z,70.77
2018-11-03T19:12:34.282Z,68.67
2018-11-03T19:15:02.923Z,72.93
2018-11-03T19:17:31.334Z,68.57
2018-11-03T19:19:59.314Z,64.93
2018-11-03T19:22:27.279Z,70.17
2018-11-03T19:24:55.720Z,66.63
2018-11-03T19:27:23.917Z,69.27
2018-11-03T19:29:52.403Z,80.57
2018-11-03T19:32:20.816Z,93.13
2018-11-03T19:34:49.073Z,56.80
2018-11-03T19:37:17.423Z,66.10
2018-11-03T19:39:45.738Z,60.83
2018-11-03T19:42:14.227Z,61.63
2018-11-03T19:44:42.478Z,65.00
2018-11-03T19:47:11.024Z,70.13
2018-11-03T19:49:39.255Z,71.20
2018-11-03T19:52:07.763Z,73.60
2018-11-03T19:54:36.038Z,71.83
2018-11-03T19:57:04.296Z,82.27
2018-11-03T19:59:32.518Z,74.97
2018-11-03T20:02:00.884Z,69.47
2018-11-03T20:04:29.104Z,69.57
2018-11-03T20:06:57.384Z,67.27
2018-11-03T20:09:25.932Z,63.10
2018-11-03T20:11:54.120Z,63.93
2018-11-03T20:14:22.223Z,57.00
2018-11-03T20:16:50.125Z,74.50
2018-11-03T20:19:17.855Z,59.70
2018-11-03T20:21:46.013Z,71.23
2018-11-03T20:24:14.280Z,71.47
2018-11-03T20:26:42.563Z,65.70
2018-11-03T20:29:11.116Z,66.47
2018-11-03T20:31:39.337Z,68.90
2018-11-03T20:34:07.636Z,70.97
2018-11-03T20:36:36.137Z,59.57
2018-11-03T20:39:06.028Z,71.63
2018-11-03T20:41:34.169Z,77.63
2018-11-03T20:44:02.329Z,87.77
2018-11-03T20:46:30.626Z,83.87
2018-11-03T20:48:59.210Z,96.97
2018-11-03T20:51:27.389Z,73.90
2018-11-03T20:53:55.944Z,95.37
2018-11-03T20:56:24.092Z,78.93
2018-11-03T20:58:52.203Z,87.97
2018-11-03T21:01:20.512Z,80.90
2018-11-03T21:03:48.775Z,71.83
2018-11-03T21:06:17.025Z,71.03
2018-11-03T21:08:45.317Z,75.60
2018-11-03T21:11:13.751Z,68.93
2018-11-03T21:13:42.043Z,64.30
2018-11-03T21:16:10.608Z,73.23
2018-11-03T21:18:38.854Z,71.83
2018-11-03T21:21:07.293Z,65.77
2018-11-03T21:23:35.669Z,60.90
2018-11-03T21:26:04.096Z,76.23
2018-11-03T21:28:32.859Z,84.67
2018-11-03T21:31:01.048Z,85.07
2018-11-03T21:33:29.463Z,73.07
2018-11-03T21:35:57.539Z,72.23
2018-11-03T21:38:25.486Z,70.27
2018-11-03T21:40:53.903Z,68.97
2018-11-03T21:43:21.952Z,88.13
2018-11-03T21:45:50.111Z,92.37
2018-11-03T21:48:18.576Z,75.93
2018-11-03T21:50:46.983Z,89.03
2018-11-03T21:53:15.124Z,104.70
2018-11-03T21:55:43.190Z,111.40
2018-11-03T21:58:11.638Z,95.73
2018-11-03T22:00:39.948Z,89.03
2018-11-03T22:03:08.398Z,82.63
2018-11-03T22:05:36.639Z,88.17
2018-11-03T22:08:04.609Z,93.10
2018-11-03T22:10:32.840Z,102.03
2018-11-03T22:13:01.103Z,97.00
2018-11-03T22:15:29.444Z,77.23
2018-11-03T22:17:57.647Z,83.67
2018-11-03T22:20:25.944Z,80.30
2018-11-03T22:22:54.210Z,77.70
2018-11-03T22:25:22.477Z,71.77
2018-11-03T22:27:50.953Z,71.90
2018-11-03T22:30:19.226Z,65.47
2018-11-03T22:32:47.807Z,65.90
2018-11-03T22:35:16.019Z,59.90
2018-11-03T22:37:44.563Z,56.47
2018-11-03T22:40:12.776Z,58.23
2018-11-03T22:42:41.115Z,57.67
2018-11-03T22:45:09.350Z,46.83
2018-11-03T22:47:37.667Z,51.57
2018-11-03T22:50:05.644Z,57.30
2018-11-03T22:52:34.005Z,52.70
2018-11-03T22:55:02.387Z,53.17
2018-11-03T22:57:30.664Z,58.27
2018-11-03T22:59:58.975Z,51.23
2018-11-03T23:02:27.463Z,49.40
2018-11-03T23:04:55.659Z,46.93
2018-11-03T23:07:23.487Z,45.37
2018-11-03T23:09:51.236Z,45.90
2018-11-03T23:12:19.560Z,46.47
2018-11-03T23:14:48.047Z,43.97
2018-11-03T23:17:16.270Z,44.37
2018-11-03T23:19:44.740Z,50.57
2018-11-03T23:22:13.173Z,44.40
2018-11-03T23:24:41.451Z,44.30
2018-11-03T23:27:09.580Z,48.90
2018-11-03T23:29:37.784Z,56.70
2018-11-03T23:32:05.629Z,61.73
2018-11-03T23:34:33.768Z,50.63
2018-11-03T23:37:02.046Z,51.03
2018-11-03T23:39:30.579Z,44.70
2018-11-03T23:41:58.824Z,41.37
2018-11-03T23:44:27.192Z,48.07
2018-11-03T23:46:55.583Z,48.70
2018-11-03T23:49:24.045Z,45.73
2018-11-03T23:51:52.358Z,43.77
2018-11-03T23:54:20.627Z,40.20
2018-11-03T23:56:49.114Z,52.73
2018-11-03T23:59:17.668Z,85.37
